Time;durP1;ratioP1;P1;durP2;ratioP2;P2;SDS_P1;SDS_P2;PMS_P1;PMS_P2;Temp;Humidity;BMP_temperature;BMP_pressure;BME280_temperature;BME280_humidity;BME280_pressure;Samples;Min_cycle;Max_cycle;Signal;HPM_P1;HPM_P2
2021/05/18 00:00:08;;;;;;;;;;;;;;;22.18;52.41;99343.67;1732869;82;20246;-79
2021/05/18 00:02:35;;;;;;;;;;;;;;;22.14;52.64;99350.73;1734714;82;20503;-79
2021/05/18 00:05:02;;;;;;;;;;;;;;;22.16;52.61;99350.46;1734191;82;20162;-80
2021/05/18 00:07:28;;;;;;;;;;;;;;;22.10;52.64;99355.03;1733461;82;20203;-79
2021/05/18 00:12:39;;;;;;;;;;;;;;;22.02;52.67;99345.95;1732661;82;20547;-80
2021/05/18 00:15:09;;;;;;;;;;;;;;;22.00;52.70;99333.96;1732015;82;20230;-78
2021/05/18 00:17:35;;;;;;;;;;;;;;;22.01;52.75;99333.42;1734154;83;20214;-79
2021/05/18 00:20:08;;;;;;;;;;;;;;;22.01;52.74;99326.05;1732803;82;20547;-77
2021/05/18 00:22:34;;;;;;;;;;;;;;;22.02;52.74;99326.33;1731553;83;20587;-77
2021/05/18 00:25:00;;;;;;;;;;;;;;;22.03;52.75;99321.72;1732603;83;20213;-77
2021/05/18 00:27:29;;;;;;;;;;;;;;;22.03;52.69;99312.18;1732809;82;20178;-77
2021/05/18 00:29:54;;;;;;;;;;;;;;;22.01;52.66;99307.51;1732166;82;20242;-78
2021/05/18 00:32:20;;;;;;;;;;;;;;;22.00;52.63;99310.78;1732434;82;20146;-79
2021/05/18 00:34:52;;;;;;;;;;;;;;;21.99;52.63;99302.88;1732775;82;20162;-79
2021/05/18 00:37:15;;;;;;;;;;;;;;;22.00;52.68;99304.52;1732354;82;20184;-79
2021/05/18 00:39:41;;;;;;;;;;;;;;;21.98;52.70;99301.20;1733366;82;20191;-78
2021/05/18 00:42:18;;;;;;;;;;;;;;;21.98;52.63;99298.48;1733943;83;20199;-78
2021/05/18 00:44:44;;;;;;;;;;;;;;;21.96;52.68;99306.11;1734121;83;20187;-78
2021/05/18 00:47:11;;;;;;;;;;;;;;;21.94;52.73;99306.93;1734482;82;20163;-78
2021/05/18 00:49:37;;;;;;;;;;;;;;;21.93;52.75;99304.72;1734119;82;20170;-79
2021/05/18 00:52:05;;;;;;;;;;;;;;;21.94;52.72;99300.11;1732885;83;20206;-79
2021/05/18 00:54:46;;;;;;;;;;;;;;;21.93;52.73;99293.81;1733435;82;20652;-79
2021/05/18 00:59:54;;;;;;;;;;;;;;;22.05;52.49;99290.91;1733334;82;20230;-79
2021/05/18 01:02:24;;;;;;;;;;;;;;;22.06;52.38;99289.82;1732487;83;20231;-79
2021/05/18 01:04:56;;;;;;;;;;;;;;;22.06;52.33;99294.45;1732105;83;20242;-79
2021/05/18 01:07:19;;;;;;;;;;;;;;;22.02;52.33;99303.70;1732229;82;20226;-79
2021/05/18 01:09:46;;;;;;;;;;;;;;;21.97;52.35;99303.66;1732229;83;20155;-78
2021/05/18 01:12:13;;;;;;;;;;;;;;;21.88;52.40;99305.22;1732146;82;20154;-79
2021/05/18 01:14:39;;;;;;;;;;;;;;;21.79;52.58;99296.70;1710508;83;20519;-79
2021/05/18 01:17:06;;;;;;;;;;;;;;;21.77;52.78;99308.42;1733769;82;20143;-78
2021/05/18 01:19:32;;;;;;;;;;;;;;;21.77;52.74;99296.97;1733217;82;20162;-78
2021/05/18 01:22:02;;;;;;;;;;;;;;;21.77;52.72;99293.42;1733234;82;20143;-78
2021/05/18 01:24:30;;;;;;;;;;;;;;;21.79;52.73;99289.88;1733252;82;20162;-78
2021/05/18 01:26:57;;;;;;;;;;;;;;;21.82;52.76;99287.20;1732970;82;20147;-79
2021/05/18 01:29:25;;;;;;;;;;;;;;;21.83;52.71;99286.11;1732318;82;20170;-79
2021/05/18 01:31:51;;;;;;;;;;;;;;;21.85;52.65;99293.50;1732601;82;20511;-79
2021/05/18 01:34:18;;;;;;;;;;;;;;;21.87;52.65;99287.23;1732410;83;20163;-79
2021/05/18 01:36:45;;;;;;;;;;;;;;;21.89;52.61;99294.59;1732548;82;20206;-79
2021/05/18 01:44:32;;;;;;;;;;;;;;;21.93;52.55;99286.17;1732346;82;20147;-79
2021/05/18 01:46:58;;;;;;;;;;;;;;;21.93;52.47;99289.72;1732703;82;20139;-79
2021/05/18 01:49:26;;;;;;;;;;;;;;;21.93;52.38;99291.63;1731951;82;20172;-79
2021/05/18 01:51:55;;;;;;;;;;;;;;;21.87;52.37;99289.95;1732405;82;20185;-79
2021/05/18 01:54:30;;;;;;;;;;;;;;;21.84;52.45;99285.83;1732522;83;20162;-78
2021/05/18 01:57:17;;;;;;;;;;;;;;;21.82;52.58;99284.47;1711769;82;20193;-78
2021/05/18 01:59:35;;;;;;;;;;;;;;;21.81;52.61;99282.28;1710807;82;20550;-77
2021/05/18 02:02:05;;;;;;;;;;;;;;;21.81;52.62;99287.73;1731960;82;20227;-78
2021/05/18 02:04:45;;;;;;;;;;;;;;;21.79;52.58;99286.61;1732843;83;20163;-78
2021/05/18 02:07:18;;;;;;;;;;;;;;;21.79;52.61;99286.61;1732177;82;20186;-79
2021/05/18 02:09:46;;;;;;;;;;;;;;;21.77;52.59;99288.79;1733626;82;20542;-78
2021/05/18 02:12:13;;;;;;;;;;;;;;;21.75;52.65;99286.85;1733266;82;20536;-79
2021/05/18 02:14:43;;;;;;;;;;;;;;;21.72;52.64;99281.12;1732286;82;20178;-78
2021/05/18 02:17:29;;;;;;;;;;;;;;;21.69;52.76;99287.90;1719867;82;20210;-79
2021/05/18 02:25:07;;;;;;;;;;;;;;;21.69;52.84;99287.90;1732432;83;20260;-79
2021/05/18 02:27:38;;;;;;;;;;;;;;;21.72;52.76;99294.20;1729413;83;20520;-79
2021/05/18 02:30:06;;;;;;;;;;;;;;;21.73;52.68;99289.03;1732635;82;20199;-78
2021/05/18 02:32:33;;;;;;;;;;;;;;;21.73;52.64;99287.66;1711926;83;20535;-78
2021/05/18 02:35:02;;;;;;;;;;;;;;;21.69;52.65;99290.63;1732878;82;20146;-78
2021/05/18 02:37:28;;;;;;;;;;;;;;;21.64;52.80;99298.77;1733207;82;20215;-78
2021/05/18 02:39:56;;;;;;;;;;;;;;;21.62;52.88;99291.91;1733168;82;20245;-79
2021/05/18 02:42:22;;;;;;;;;;;;;;;21.63;53.00;99301.21;1733717;82;20180;-79
2021/05/18 02:50:03;;;;;;;;;;;;;;;21.63;52.99;99309.39;1732013;82;20543;-78
2021/05/18 02:52:32;;;;;;;;;;;;;;;21.56;52.97;99305.22;1732266;82;20559;-78
2021/05/18 02:54:59;;;;;;;;;;;;;;;21.52;53.14;99299.45;1732190;83;20226;-78
2021/05/18 02:57:34;;;;;;;;;;;;;;;21.54;53.31;99304.12;1732230;82;20139;-78
2021/05/18 03:00:01;;;;;;;;;;;;;;;21.54;53.32;99312.30;1732034;82;20230;-78
2021/05/18 03:02:27;;;;;;;;;;;;;;;21.53;53.29;99312.84;1732289;82;20138;-79
2021/05/18 03:04:53;;;;;;;;;;;;;;;21.54;53.29;99310.94;1732191;82;20154;-79
2021/05/18 03:07:21;;;;;;;;;;;;;;;21.55;53.32;99315.84;1732125;83;20206;-78
2021/05/18 03:09:48;;;;;;;;;;;;;;;21.54;53.39;99315.02;1731996;82;20523;-78
2021/05/18 03:12:14;;;;;;;;;;;;;;;21.53;53.40;99322.92;1731888;82;20217;-78
2021/05/18 03:14:40;;;;;;;;;;;;;;;21.49;53.46;99328.06;1732278;83;20544;-79
2021/05/18 03:17:06;;;;;;;;;;;;;;;21.46;53.62;99327.73;1732555;83;20238;-78
2021/05/18 03:19:32;;;;;;;;;;;;;;;21.44;53.78;99325.83;1710415;82;20230;-78
2021/05/18 03:21:58;;;;;;;;;;;;;;;21.42;53.88;99332.05;1730657;82;20324;-80
2021/05/18 03:24:25;;;;;;;;;;;;;;;21.38;54.00;99337.73;1730842;82;20253;-78
2021/05/18 03:26:51;;;;;;;;;;;;;;;21.33;54.13;99341.77;1731587;82;20202;-78
2021/05/18 03:34:34;;;;;;;;;;;;;;;21.31;54.39;99329.78;1732090;82;20531;-78
2021/05/18 03:39:43;;;;;;;;;;;;;;;21.37;54.36;99340.17;1729690;83;20214;-79
2021/05/18 03:42:18;;;;;;;;;;;;;;;21.37;54.35;99344.27;1731920;83;20559;-79
2021/05/18 03:52:37;;;;;;;;;;;;;;;21.27;54.61;99353.12;1709532;83;20274;-79
2021/05/18 03:58:33;;;;;;;;;;;;;;;21.23;54.74;99347.35;1730629;82;20281;-76
2021/05/18 04:03:10;;;;;;;;;;;;;;;21.31;55.03;99339.30;1731089;83;20182;-78
2021/05/18 04:18:40;;;;;;;;;;;;;;;21.58;54.74;99339.31;1686961;84;20226;-78
2021/05/18 04:21:07;;;;;;;;;;;;;;;21.58;54.83;99336.59;1715682;82;20238;-78
2021/05/18 05:01:18;;;;;;;;;;;;;;;21.42;55.40;99341.59;1706215;83;20233;-78
2021/05/18 05:14:15;;;;;;;;;;;;;;;21.50;55.53;99339.77;1722167;82;20280;-79
2021/05/18 05:16:35;;;;;;;;;;;;;;;21.48;55.56;99344.64;1711174;81;20407;-79
2021/05/18 05:19:02;;;;;;;;;;;;;;;21.50;55.60;99346.58;1716369;82;20265;-79
2021/05/18 05:21:29;;;;;;;;;;;;;;;21.46;55.57;99350.36;1716304;81;20597;-79
2021/05/18 05:23:55;;;;;;;;;;;;;;;21.45;55.73;99353.34;1683212;83;20314;-80
2021/05/18 05:26:21;;;;;;;;;;;;;;;21.44;55.72;99355.80;1719017;81;20254;-79
2021/05/18 05:28:47;;;;;;;;;;;;;;;21.46;55.76;99353.63;1699738;82;20236;-77
2021/05/18 05:31:13;;;;;;;;;;;;;;;21.50;55.82;99365.66;1716726;81;20309;-78
2021/05/18 05:33:39;;;;;;;;;;;;;;;21.51;55.59;99364.58;1710856;81;20285;-78
2021/05/18 05:36:06;;;;;;;;;;;;;;;21.48;55.52;99358.27;1694315;80;20798;-78
2021/05/18 05:38:35;;;;;;;;;;;;;;;21.46;55.64;99366.70;1719865;81;20301;-78
2021/05/18 05:41:02;;;;;;;;;;;;;;;21.43;55.56;99359.03;1723072;81;20315;-79
2021/05/18 05:43:28;;;;;;;;;;;;;;;21.42;55.65;99356.58;1720044;82;20309;-80
2021/05/18 05:45:54;;;;;;;;;;;;;;;21.41;55.88;99354.39;1721843;81;20204;-80
2021/05/18 05:48:20;;;;;;;;;;;;;;;21.43;56.04;99354.95;1718266;81;20288;-80
2021/05/18 05:50:47;;;;;;;;;;;;;;;21.45;55.64;99350.63;1719321;81;20260;-79
2021/05/18 05:53:14;;;;;;;;;;;;;;;21.43;55.57;99354.13;1721719;81;20209;-80
2021/05/18 05:55:42;;;;;;;;;;;;;;;21.39;55.57;99353.84;1723592;81;20320;-80
2021/05/18 05:58:08;;;;;;;;;;;;;;;21.37;55.58;99357.34;1722293;81;20267;-80
2021/05/18 06:00:34;;;;;;;;;;;;;;;21.32;55.62;99357.83;1723439;80;20249;-80
2021/05/18 06:03:03;;;;;;;;;;;;;;;21.34;55.94;99358.38;1727337;81;20298;-80
2021/05/18 06:05:28;;;;;;;;;;;;;;;21.40;55.89;99360.11;1722002;81;20633;-80
2021/05/18 06:07:54;;;;;;;;;;;;;;;21.44;55.81;99353.89;1726538;80;20479;-80
2021/05/18 06:10:36;;;;;;;;;;;;;;;21.46;55.39;99351.72;1726347;81;20269;-80
2021/05/18 06:37:30;;;;;;;;;;;;;;;22.21;54.46;99320.49;1699117;81;20326;-78
2021/05/18 06:47:59;;;;;;;;;;;;;;;22.16;53.90;99317.73;1718954;81;20351;-78
2021/05/18 06:50:34;;;;;;;;;;;;;;;22.21;53.92;99321.34;1715654;81;20274;-78
2021/05/18 06:52:54;;;;;;;;;;;;;;;22.23;53.90;99316.43;1715107;81;20763;-78
2021/05/18 06:55:24;;;;;;;;;;;;;;;22.36;53.92;99316.52;1716207;81;20377;-79
2021/05/18 06:57:51;;;;;;;;;;;;;;;22.53;53.83;99310.90;1715749;81;20324;-78
2021/05/18 07:00:19;;;;;;;;;;;;;;;22.70;53.33;99312.88;1717159;81;20788;-81
2021/05/18 07:02:57;;;;;;;;;;;;;;;22.89;53.51;99304.22;1720371;80;20671;-77
2021/05/18 07:07:57;;;;;;;;;;;;;;;23.24;52.06;99292.08;1699018;80;20253;-78
2021/05/18 07:10:18;;;;;;;;;;;;;;;23.34;51.69;99300.02;1676791;82;20214;-79
2021/05/18 07:12:50;;;;;;;;;;;;;;;23.33;50.99;99302.48;1677218;82;20239;-79
2021/05/18 07:15:16;;;;;;;;;;;;;;;23.21;51.02;99280.34;1672970;82;20186;-78
2021/05/18 07:17:42;;;;;;;;;;;;;;;23.20;51.37;99277.86;1674636;82;20320;-78
2021/05/18 07:20:09;;;;;;;;;;;;;;;23.31;51.29;99277.35;1681682;82;20200;-78
2021/05/18 07:22:35;;;;;;;;;;;;;;;23.52;51.14;99275.72;1680957;82;20253;-78
2021/05/18 07:25:01;;;;;;;;;;;;;;;23.78;50.99;99280.69;1690318;82;20196;-77
2021/05/18 07:27:28;;;;;;;;;;;;;;;24.08;49.95;99281.78;1685474;82;20234;-77
2021/05/18 07:29:54;;;;;;;;;;;;;;;24.25;49.33;99276.83;1675462;83;20198;-77
2021/05/18 07:32:21;;;;;;;;;;;;;;;24.42;48.70;99279.81;1654877;83;20319;-78
2021/05/18 07:34:51;;;;;;;;;;;;;;;24.52;48.39;99285.25;1643673;83;20549;-79
2021/05/18 07:37:18;;;;;;;;;;;;;;;24.67;48.66;99281.11;1656545;83;20788;-80
2021/05/18 07:39:44;;;;;;;;;;;;;;;24.84;47.63;99284.04;1658959;83;20298;-79
2021/05/18 07:42:11;;;;;;;;;;;;;;;24.94;47.03;99293.61;1662284;83;20286;-78
2021/05/18 07:44:37;;;;;;;;;;;;;;;25.00;46.86;99292.47;1654186;84;20204;-78
2021/05/18 07:47:04;;;;;;;;;;;;;;;25.10;47.40;99286.96;1676486;83;20183;-79
2021/05/18 07:49:37;;;;;;;;;;;;;;;25.19;46.18;99282.52;1676844;84;20245;-79
2021/05/18 08:00:02;;;;;;;;;;;;;;;25.49;45.04;99276.59;1710816;81;20219;-77
2021/05/18 08:05:21;;;;;;;;;;;;;;;25.68;44.86;99276.16;1720861;80;20203;-77
2021/05/18 08:07:47;;;;;;;;;;;;;;;25.79;44.88;99283.77;1715004;81;20217;-78
2021/05/18 08:10:20;;;;;;;;;;;;;;;25.84;43.92;99285.09;1717264;81;20277;-77
2021/05/18 08:12:44;;;;;;;;;;;;;;;25.75;43.26;99294.49;1719661;80;20239;-76
2021/05/18 10:37:36;;;;;;;;;;;;;;;25.59;42.22;99176.98;1720757;81;20268;-76
2021/05/18 10:40:26;;;;;;;;;;;;;;;25.64;42.06;99176.37;1700018;81;20229;-78
2021/05/18 10:43:21;;;;;;;;;;;;;;;25.68;41.31;99167.83;1724954;81;20263;-76
2021/05/18 10:46:05;;;;;;;;;;;;;;;25.71;42.92;99171.38;1725778;81;20592;-78
2021/05/18 10:48:42;;;;;;;;;;;;;;;25.78;44.57;99175.98;1732065;80;20207;-77
2021/05/18 10:51:27;;;;;;;;;;;;;;;25.82;45.58;99161.14;1728691;81;20207;-77
2021/05/18 10:54:33;;;;;;;;;;;;;;;25.83;45.98;99172.92;1727394;80;20209;-76
2021/05/18 10:56:59;;;;;;;;;;;;;;;25.77;46.35;99158.45;1720253;81;20404;-77
2021/05/18 10:59:31;;;;;;;;;;;;;;;25.66;46.60;99168.69;1722265;81;20174;-77
2021/05/18 11:02:06;;;;;;;;;;;;;;;25.57;46.86;99167.64;1726873;80;20166;-76
2021/05/18 11:04:41;;;;;;;;;;;;;;;25.47;46.99;99151.30;1719021;81;20160;-76
2021/05/18 11:07:09;;;;;;;;;;;;;;;25.34;47.26;99147.84;1711081;81;20674;-77
2021/05/18 11:09:35;;;;;;;;;;;;;;;25.27;47.24;99139.97;1744789;81;20218;-76
2021/05/18 11:12:11;;;;;;;;;;;;;;;25.23;47.40;99142.45;1741050;81;20206;-77
2021/05/18 11:14:51;;;;;;;;;;;;;;;25.13;47.66;99145.84;1724310;81;20230;-77
2021/05/18 11:17:26;;;;;;;;;;;;;;;25.04;48.01;99151.89;1728688;81;20185;-77
2021/05/18 11:20:05;;;;;;;;;;;;;;;24.99;48.30;99153.30;1729973;80;20630;-77
2021/05/18 11:26:00;;;;;;;;;;;;;;;24.89;48.67;99152.53;1720034;81;20266;-76
2021/05/18 11:28:33;;;;;;;;;;;;;;;24.83;48.80;99133.14;1726085;80;20214;-76
2021/05/18 11:31:04;;;;;;;;;;;;;;;24.84;49.26;99134.77;1718140;80;20231;-77
2021/05/18 11:33:46;;;;;;;;;;;;;;;24.83;49.21;99129.03;1708934;81;20201;-77
2021/05/18 11:36:21;;;;;;;;;;;;;;;24.83;49.12;99138.62;1728790;81;20206;-77
2021/05/18 11:38:56;;;;;;;;;;;;;;;24.74;49.07;99131.55;1688358;82;20270;-77
2021/05/18 11:41:24;;;;;;;;;;;;;;;24.74;49.02;99130.19;1711400;82;20234;-77
2021/05/18 11:43:54;;;;;;;;;;;;;;;24.66;49.02;99130.22;1699616;82;20184;-77
2021/05/18 11:46:20;;;;;;;;;;;;;;;24.60;49.16;99126.44;1723934;81;20158;-77
2021/05/18 11:49:01;;;;;;;;;;;;;;;24.53;49.32;99119.38;1740024;80;20241;-78
2021/05/18 11:51:30;;;;;;;;;;;;;;;24.50;49.47;99110.90;1737983;80;20176;-79
2021/05/18 11:54:07;;;;;;;;;;;;;;;24.50;49.54;99108.16;1707029;81;20639;-78
2021/05/18 11:56:34;;;;;;;;;;;;;;;24.47;49.67;99105.42;1718716;81;20728;-78
2021/05/18 11:59:05;;;;;;;;;;;;;;;24.43;49.86;99099.42;1707024;81;20226;-78
2021/05/18 12:01:32;;;;;;;;;;;;;;;24.43;49.96;99097.50;1724943;81;20182;-77
2021/05/18 12:04:00;;;;;;;;;;;;;;;24.41;49.86;99109.85;1719958;81;20190;-78
2021/05/18 12:06:26;;;;;;;;;;;;;;;24.33;49.71;99097.53;1722939;81;20656;-77
2021/05/18 12:08:57;;;;;;;;;;;;;;;24.28;49.46;99098.94;1711196;81;20201;-78
2021/05/18 12:11:24;;;;;;;;;;;;;;;24.21;49.26;99101.99;1711725;81;20658;-77
2021/05/18 12:13:52;;;;;;;;;;;;;;;24.16;49.44;99093.78;1711394;82;20562;-77
2021/05/18 12:16:19;;;;;;;;;;;;;;;24.10;49.82;99086.70;1717869;81;20247;-77
2021/05/18 12:18:54;;;;;;;;;;;;;;;24.08;50.13;99090.28;1725124;81;20204;-78
2021/05/18 12:21:25;;;;;;;;;;;;;;;24.10;50.32;99094.91;1717108;81;20211;-77
2021/05/18 12:24:13;;;;;;;;;;;;;;;24.06;50.24;99095.20;1715262;81;20206;-77
2021/05/18 12:27:00;;;;;;;;;;;;;;;23.99;50.31;99105.64;1719809;80;20196;-78
2021/05/18 12:29:46;;;;;;;;;;;;;;;23.92;50.39;99119.59;1727436;80;20250;-78
2021/05/18 12:32:28;;;;;;;;;;;;;;;23.86;50.36;99104.86;1727387;81;20193;-76
2021/05/18 12:35:00;;;;;;;;;;;;;;;23.82;50.54;99105.96;1709360;80;20260;-77
2021/05/18 12:37:47;;;;;;;;;;;;;;;23.77;50.68;99120.47;1712713;81;20169;-78
2021/05/18 12:40:29;;;;;;;;;;;;;;;23.77;50.77;99113.63;1737236;80;20775;-79
2021/05/18 12:42:57;;;;;;;;;;;;;;;23.75;50.92;99107.64;1735212;81;20615;-78
2021/05/18 12:45:26;;;;;;;;;;;;;;;23.74;50.99;99095.04;1711602;80;20619;-76
2021/05/18 12:47:55;;;;;;;;;;;;;;;23.74;50.95;99092.86;1719350;81;20246;-78
2021/05/18 12:50:21;;;;;;;;;;;;;;;23.73;50.99;99097.51;1727343;80;20287;-78
2021/05/18 12:52:50;;;;;;;;;;;;;;;23.71;51.08;99092.88;1729905;80;20594;-77
2021/05/18 12:55:23;;;;;;;;;;;;;;;23.74;51.04;99095.04;1718992;82;20166;-78
2021/05/18 12:57:58;;;;;;;;;;;;;;;23.77;50.84;99082.19;1715715;82;20266;-79
2021/05/18 13:00:35;;;;;;;;;;;;;;;23.78;50.99;99072.88;1721778;82;20238;-78
2021/05/18 13:03:12;;;;;;;;;;;;;;;23.81;51.09;99078.91;1716871;82;20254;-79
2021/05/18 13:05:42;;;;;;;;;;;;;;;23.79;51.09;99090.92;1712965;81;20270;-80
2021/05/18 13:08:21;;;;;;;;;;;;;;;23.76;51.10;99137.97;1720317;81;20448;-78
2021/05/18 13:13:41;;;;;;;;;;;;;;;23.62;48.00;99154.66;1710382;81;20281;-78
2021/05/18 13:16:20;;;;;;;;;;;;;;;23.45;46.79;99148.66;1727684;81;20217;-79
2021/05/18 13:19:16;;;;;;;;;;;;;;;23.30;47.09;99167.25;1707812;81;20266;-80
2021/05/18 13:21:58;;;;;;;;;;;;;;;23.13;46.77;99191.27;1716312;82;20255;-80
2021/05/18 13:27:09;;;;;;;;;;;;;;;22.52;47.73;99180.97;1715454;82;20621;-81
2021/05/18 13:29:36;;;;;;;;;;;;;;;22.45;48.49;99189.97;1715365;81;20164;-81
2021/05/18 13:32:02;;;;;;;;;;;;;;;22.32;48.01;99208.19;1710916;83;20274;-80
2021/05/18 13:34:29;;;;;;;;;;;;;;;22.10;48.81;99191.41;1734872;79;20188;-79
2021/05/18 13:36:57;;;;;;;;;;;;;;;22.01;49.62;99222.98;1728003;81;20143;-80
2021/05/18 13:39:25;;;;;;;;;;;;;;;21.87;50.61;99218.53;1746890;80;20250;-78
2021/05/18 13:41:52;;;;;;;;;;;;;;;21.83;50.85;99217.95;1746854;79;20158;-79
2021/05/18 13:44:20;;;;;;;;;;;;;;;21.68;51.47;99219.49;1750367;79;20139;-79
2021/05/18 13:46:47;;;;;;;;;;;;;;;21.57;51.49;99224.56;1756252;79;20141;-80
2021/05/18 13:49:14;;;;;;;;;;;;;;;21.43;52.45;99220.64;1735446;79;20361;-79
2021/05/18 13:51:42;;;;;;;;;;;;;;;21.37;52.73;99217.06;1734329;80;20186;-80
2021/05/18 13:54:09;;;;;;;;;;;;;;;21.33;53.16;99224.10;1733385;80;20766;-79
2021/05/18 13:56:35;;;;;;;;;;;;;;;21.32;53.49;99221.10;1726581;81;20282;-79
2021/05/18 13:59:02;;;;;;;;;;;;;;;21.37;53.42;99221.69;1728487;81;20410;-80
2021/05/18 14:01:29;;;;;;;;;;;;;;;21.37;53.56;99208.89;1723219;81;20275;-79
2021/05/18 14:03:55;;;;;;;;;;;;;;;21.41;53.43;99199.66;1704282;81;20273;-79
2021/05/18 14:06:22;;;;;;;;;;;;;;;21.39;53.39;99199.93;1695578;83;20316;-78
2021/05/18 14:08:49;;;;;;;;;;;;;;;21.38;53.78;99189.27;1697980;82;20651;-80
2021/05/18 14:11:17;;;;;;;;;;;;;;;21.38;54.12;99187.91;1704225;81;20300;-78
2021/05/18 14:13:47;;;;;;;;;;;;;;;21.39;54.17;99181.38;1697095;83;20165;-77
2021/05/18 14:16:15;;;;;;;;;;;;;;;21.39;53.73;99188.19;1696054;83;20611;-79
2021/05/18 14:18:42;;;;;;;;;;;;;;;21.42;53.89;99181.69;1689744;81;20325;-77
2021/05/18 14:21:08;;;;;;;;;;;;;;;21.44;53.94;99171.91;1668358;82;20268;-79
2021/05/18 14:23:46;;;;;;;;;;;;;;;21.46;53.72;99164.28;1690116;83;20200;-78
2021/05/18 14:26:09;;;;;;;;;;;;;;;21.45;53.91;99158.56;1689550;83;20231;-79
2021/05/18 14:28:39;;;;;;;;;;;;;;;21.48;54.27;99144.39;1701530;83;20214;-79
2021/05/18 14:31:07;;;;;;;;;;;;;;;21.53;53.96;99143.09;1744079;81;20150;-79
2021/05/18 14:33:35;;;;;;;;;;;;;;;21.57;53.83;99140.64;1744683;81;20259;-79
2021/05/18 14:36:02;;;;;;;;;;;;;;;21.65;53.57;99138.80;1749530;79;20196;-80
2021/05/18 14:38:28;;;;;;;;;;;;;;;21.68;53.22;99133.65;1742284;81;20160;-78
2021/05/18 14:56:45;;;;;;;;;;;;;;;21.79;52.92;99117.62;1750500;79;20284;-78
2021/05/18 14:59:12;;;;;;;;;;;;;;;21.78;53.00;99116.53;1750821;77;20452;-79
2021/05/18 15:01:38;;;;;;;;;;;;;;;21.74;52.62;99108.05;1749000;80;20646;-76
2021/05/18 15:04:04;;;;;;;;;;;;;;;21.70;52.46;99104.22;1744430;81;20261;-78
2021/05/18 15:06:31;;;;;;;;;;;;;;;21.68;52.62;99103.67;1756675;79;20568;-77
2021/05/18 15:08:57;;;;;;;;;;;;;;;21.66;52.78;99101.73;1757373;80;20193;-78
2021/05/18 15:11:24;;;;;;;;;;;;;;;21.69;52.78;99105.85;1756795;81;20216;-77
2021/05/18 15:13:53;;;;;;;;;;;;;;;21.63;52.62;99098.20;1753053;79;20160;-78
2021/05/18 15:16:19;;;;;;;;;;;;;;;21.58;53.08;99105.53;1755546;80;20183;-78
2021/05/18 15:18:47;;;;;;;;;;;;;;;21.53;53.69;99098.96;1759882;81;20244;-77
2021/05/18 15:21:13;;;;;;;;;;;;;;;21.49;53.88;99086.94;1754740;78;20583;-77
2021/05/18 15:23:40;;;;;;;;;;;;;;;21.55;54.07;99077.44;1748866;80;20318;-79
2021/05/18 15:26:07;;;;;;;;;;;;;;;21.60;53.72;99086.45;1755722;80;20332;-79
2021/05/18 15:28:33;;;;;;;;;;;;;;;21.65;53.82;99090.56;1760069;79;20249;-78
2021/05/18 15:30:59;;;;;;;;;;;;;;;21.65;53.51;99098.73;1757468;79;20270;-78
2021/05/18 15:33:25;;;;;;;;;;;;;;;21.61;53.86;99100.34;1755096;79;20342;-77
2021/05/18 15:35:51;;;;;;;;;;;;;;;21.62;54.30;99107.97;1751479;79;20271;-80
2021/05/18 15:38:19;;;;;;;;;;;;;;;21.62;54.20;99105.25;1757101;79;20318;-77
2021/05/18 15:40:45;;;;;;;;;;;;;;;21.61;54.43;99099.53;1761861;79;20233;-77
2021/05/18 15:43:12;;;;;;;;;;;;;;;21.66;54.92;99092.20;1763770;79;20230;-78
2021/05/18 15:45:40;;;;;;;;;;;;;;;21.73;54.89;99091.98;1765136;79;20184;-77
2021/05/18 15:48:07;;;;;;;;;;;;;;;21.82;55.25;99086.84;1755506;80;20204;-78
2021/05/18 15:50:33;;;;;;;;;;;;;;;21.90;55.05;99094.52;1755302;79;20610;-77
2021/05/18 15:53:00;;;;;;;;;;;;;;;21.91;54.73;99094.25;1763105;79;20271;-77
2021/05/18 15:55:26;;;;;;;;;;;;;;;21.93;54.46;99089.88;1763807;79;20452;-76
2021/05/18 15:57:53;;;;;;;;;;;;;;;21.95;54.53;99089.09;1766947;79;20261;-79
2021/05/18 16:00:22;;;;;;;;;;;;;;;21.96;54.10;99088.00;1758647;79;20245;-78
2021/05/18 16:02:49;;;;;;;;;;;;;;;21.88;54.29;99092.05;1759923;80;20201;-78
2021/05/18 16:05:15;;;;;;;;;;;;;;;21.86;54.33;99083.32;1734982;79;20266;-78
2021/05/18 16:07:43;;;;;;;;;;;;;;;21.81;54.20;99070.22;1763808;78;20234;-78
2021/05/18 16:10:09;;;;;;;;;;;;;;;21.80;54.29;99068.01;1758184;80;20272;-79
2021/05/18 16:12:35;;;;;;;;;;;;;;;21.79;54.69;99069.10;1762692;79;20214;-78
2021/05/18 16:15:06;;;;;;;;;;;;;;;21.82;54.73;99061.77;1748997;79;20202;-78
2021/05/18 16:17:32;;;;;;;;;;;;;;;21.88;54.61;99063.97;1755031;80;20257;-78
2021/05/18 16:20:00;;;;;;;;;;;;;;;21.90;54.68;99052.27;1750209;79;20247;-78
2021/05/18 16:22:26;;;;;;;;;;;;;;;21.90;54.78;99059.08;1756271;79;20266;-77
2021/05/18 16:24:52;;;;;;;;;;;;;;;21.91;54.77;99057.99;1743375;81;20396;-77
2021/05/18 16:27:18;;;;;;;;;;;;;;;21.91;54.93;99049.81;1748514;79;20243;-76
2021/05/18 16:29:44;;;;;;;;;;;;;;;21.90;54.85;99045.45;1743248;80;20322;-77
2021/05/18 16:32:11;;;;;;;;;;;;;;;21.88;54.87;99038.89;1749652;81;20243;-77
2021/05/18 16:34:37;;;;;;;;;;;;;;;21.88;54.96;99038.06;1743750;81;20159;-77
2021/05/18 16:37:03;;;;;;;;;;;;;;;21.83;54.91;99041.59;1731866;81;20274;-77
2021/05/18 16:39:29;;;;;;;;;;;;;;;21.76;55.19;99035.04;1738919;81;20671;-77
2021/05/18 16:41:56;;;;;;;;;;;;;;;21.78;55.44;99036.12;1740956;81;20168;-76
2021/05/18 16:44:22;;;;;;;;;;;;;;;21.77;55.52;99032.58;1740642;81;20254;-77
2021/05/18 16:46:49;;;;;;;;;;;;;;;21.81;55.54;99030.70;1754082;80;20251;-78
2021/05/18 16:49:16;;;;;;;;;;;;;;;21.85;55.50;99024.99;1754983;81;20695;-78
2021/05/18 16:51:42;;;;;;;;;;;;;;;21.88;55.42;99024.44;1757172;81;20212;-78
2021/05/18 16:54:09;;;;;;;;;;;;;;;21.87;55.38;99023.63;1761474;80;20149;-78
2021/05/18 16:56:35;;;;;;;;;;;;;;;21.85;55.27;99018.99;1741541;81;20279;-79
2021/05/18 16:59:01;;;;;;;;;;;;;;;21.82;55.29;99017.34;1738499;81;20263;-78
2021/05/18 17:01:27;;;;;;;;;;;;;;;21.79;55.37;99009.95;1740335;82;20534;-78
2021/05/18 17:03:53;;;;;;;;;;;;;;;21.78;55.25;99017.05;1741013;82;20160;-78
2021/05/18 17:06:19;;;;;;;;;;;;;;;21.76;55.09;99013.23;1749445;80;20236;-79
2021/05/18 17:08:45;;;;;;;;;;;;;;;21.74;54.95;99022.75;1773232;80;20165;-79
2021/05/18 17:11:12;;;;;;;;;;;;;;;21.73;54.90;99012.94;1771098;80;20649;-78
2021/05/18 17:13:40;;;;;;;;;;;;;;;21.73;54.88;99016.48;1739945;82;20204;-79
2021/05/18 17:16:08;;;;;;;;;;;;;;;21.71;54.82;99021.39;1738814;82;20253;-79
2021/05/18 17:18:36;;;;;;;;;;;;;;;21.69;54.87;99016.73;1738254;82;20295;-79
2021/05/18 17:21:03;;;;;;;;;;;;;;;21.66;54.75;99015.89;1741454;80;20308;-79
2021/05/18 17:23:31;;;;;;;;;;;;;;;21.63;55.20;99023.26;1735880;82;20260;-80
2021/05/18 17:25:56;;;;;;;;;;;;;;;21.64;55.09;99015.91;1735011;82;20224;-78
2021/05/18 17:28:23;;;;;;;;;;;;;;;21.67;55.25;99030.37;1734201;82;21241;-78
2021/05/18 17:30:49;;;;;;;;;;;;;;;21.69;55.13;99022.19;1759839;80;20251;-79
2021/05/18 17:33:17;;;;;;;;;;;;;;;21.75;55.02;99027.92;1747598;81;20259;-78
2021/05/18 17:35:43;;;;;;;;;;;;;;;21.79;54.94;99033.13;1744091;81;20256;-78
2021/05/18 17:38:10;;;;;;;;;;;;;;;21.79;54.79;99035.84;1744460;81;20255;-78
2021/05/18 17:40:38;;;;;;;;;;;;;;;21.80;54.89;99043.48;1747000;80;20239;-78
2021/05/18 17:43:05;;;;;;;;;;;;;;;21.82;54.92;99037.78;1744056;80;20235;-79
2021/05/18 17:45:33;;;;;;;;;;;;;;;21.86;54.86;99038.89;1756021;81;20263;-79
2021/05/18 17:47:59;;;;;;;;;;;;;;;21.86;54.63;99042.98;1755580;81;20830;-78
2021/05/18 17:50:25;;;;;;;;;;;;;;;21.85;54.53;99041.34;1741614;80;20283;-78
2021/05/18 17:52:51;;;;;;;;;;;;;;;21.84;54.60;99047.86;1739311;81;20261;-78
2021/05/18 17:55:18;;;;;;;;;;;;;;;21.78;54.55;99045.12;1734414;81;20235;-77
2021/05/18 17:57:44;;;;;;;;;;;;;;;21.79;54.57;99043.20;1739106;81;20218;-77
2021/05/18 18:00:11;;;;;;;;;;;;;;;21.78;54.49;99038.30;1726526;81;20162;-78
2021/05/18 18:02:41;;;;;;;;;;;;;;;21.82;54.59;99035.88;1744473;80;20608;-78
2021/05/18 18:05:08;;;;;;;;;;;;;;;21.85;54.70;99043.53;1737971;81;20221;-78
2021/05/18 18:07:35;;;;;;;;;;;;;;;21.88;54.55;99036.70;1739576;80;20630;-78
2021/05/18 18:10:02;;;;;;;;;;;;;;;21.90;54.52;99038.64;1741405;81;20173;-78
2021/05/18 18:12:30;;;;;;;;;;;;;;;21.93;54.43;99037.53;1741666;81;20680;-79